sensor_id;sensor_type;location;lat;lon;timestamp;temperature;humidity
51837;DHT22;38941;53.254;6.600;2023-06-10T00:00:46;17.30;99.90
51837;DHT22;38941;53.254;6.600;2023-06-10T00:02:47;17.30;99.90
51837;DHT22;38941;53.254;6.600;2023-06-10T00:04:48;17.30;99.90
51837;DHT22;38941;53.254;6.600;2023-06-10T00:06:49;17.30;99.90
51837;DHT22;38941;53.254;6.600;2023-06-10T00:08:50;17.20;99.90
51837;DHT22;38941;53.254;6.600;2023-06-10T00:10:51;17.30;99.90
51837;DHT22;38941;53.254;6.600;2023-06-10T00:12:53;17.20;99.90
51837;DHT22;38941;53.254;6.600;2023-06-10T00:14:55;17.20;99.90
51837;DHT22;38941;53.254;6.600;2023-06-10T00:16:57;17.20;99.90
51837;DHT22;38941;53.254;6.600;2023-06-10T00:19:02;17.20;99.90
51837;DHT22;38941;53.254;6.600;2023-06-10T00:21:04;17.10;99.90
51837;DHT22;38941;53.254;6.600;2023-06-10T00:23:05;17.10;99.90
51837;DHT22;38941;53.254;6.600;2023-06-10T00:25:09;17.10;99.90
51837;DHT22;38941;53.254;6.600;2023-06-10T00:27:11;17.00;99.90
51837;DHT22;38941;53.254;6.600;2023-06-10T00:29:11;17.00;99.90
51837;DHT22;38941;53.254;6.600;2023-06-10T00:31:12;17.00;99.90
51837;DHT22;38941;53.254;6.600;2023-06-10T00:33:13;17.00;99.90
51837;DHT22;38941;53.254;6.600;2023-06-10T00:35:14;16.90;99.90
51837;DHT22;38941;53.254;6.600;2023-06-10T00:37:15;16.90;99.90
51837;DHT22;38941;53.254;6.600;2023-06-10T00:39:16;16.80;99.90
51837;DHT22;38941;53.254;6.600;2023-06-10T00:41:17;16.80;99.90
51837;DHT22;38941;53.254;6.600;2023-06-10T00:43:18;16.80;99.90
51837;DHT22;38941;53.254;6.600;2023-06-10T00:45:19;16.70;99.90
51837;DHT22;38941;53.254;6.600;2023-06-10T00:47:20;16.70;99.90
51837;DHT22;38941;53.254;6.600;2023-06-10T00:49:21;16.70;99.90
51837;DHT22;38941;53.254;6.600;2023-06-10T00:51:22;16.70;99.90
51837;DHT22;38941;53.254;6.600;2023-06-10T00:53:23;16.60;99.90
51837;DHT22;38941;53.254;6.600;2023-06-10T00:55:24;16.60;99.90
51837;DHT22;38941;53.254;6.600;2023-06-10T00:57:28;16.40;99.90
51837;DHT22;38941;53.254;6.600;2023-06-10T00:59:30;16.50;99.90
51837;DHT22;38941;53.254;6.600;2023-06-10T01:01:31;16.50;99.90
51837;DHT22;38941;53.254;6.600;2023-06-10T01:03:32;16.40;99.90
51837;DHT22;38941;53.254;6.600;2023-06-10T01:05:38;16.40;99.90
51837;DHT22;38941;53.254;6.600;2023-06-10T01:08:01;16.30;99.90
51837;DHT22;38941;53.254;6.600;2023-06-10T01:10:28;16.30;99.90
51837;DHT22;38941;53.254;6.600;2023-06-10T01:12:41;16.30;99.90
51837;DHT22;38941;53.254;6.600;2023-06-10T01:14:49;16.20;99.90
51837;DHT22;38941;53.254;6.600;2023-06-10T01:16:51;16.20;99.90
51837;DHT22;38941;53.254;6.600;2023-06-10T01:18:55;16.20;99.90
51837;DHT22;38941;53.254;6.600;2023-06-10T01:20:56;16.10;99.90
51837;DHT22;38941;53.254;6.600;2023-06-10T01:23:01;16.10;99.90
51837;DHT22;38941;53.254;6.600;2023-06-10T01:25:03;16.10;99.90
51837;DHT22;38941;53.254;6.600;2023-06-10T01:27:11;16.00;99.90
51837;DHT22;38941;53.254;6.600;2023-06-10T01:29:33;15.90;99.90
51837;DHT22;38941;53.254;6.600;2023-06-10T01:31:55;15.90;99.90
51837;DHT22;38941;53.254;6.600;2023-06-10T01:33:59;15.80;99.90
51837;DHT22;38941;53.254;6.600;2023-06-10T01:36:01;15.80;99.90
51837;DHT22;38941;53.254;6.600;2023-06-10T01:38:02;15.70;99.90
51837;DHT22;38941;53.254;6.600;2023-06-10T01:40:04;15.70;99.90
51837;DHT22;38941;53.254;6.600;2023-06-10T01:42:10;15.70;99.90
51837;DHT22;38941;53.254;6.600;2023-06-10T01:44:12;15.60;99.90
51837;DHT22;38941;53.254;6.600;2023-06-10T01:46:13;15.50;99.90
51837;DHT22;38941;53.254;6.600;2023-06-10T01:48:14;15.40;99.90
51837;DHT22;38941;53.254;6.600;2023-06-10T01:50:15;15.40;99.90
51837;DHT22;38941;53.254;6.600;2023-06-10T01:52:17;15.30;99.90
51837;DHT22;38941;53.254;6.600;2023-06-10T01:54:18;15.30;99.90
51837;DHT22;38941;53.254;6.600;2023-06-10T01:56:19;15.20;99.90
51837;DHT22;38941;53.254;6.600;2023-06-10T01:58:20;15.20;99.90
51837;DHT22;38941;53.254;6.600;2023-06-10T02:00:21;15.20;99.90
51837;DHT22;38941;53.254;6.600;2023-06-10T02:02:22;15.10;99.90
51837;DHT22;38941;53.254;6.600;2023-06-10T02:04:22;15.10;99.90
51837;DHT22;38941;53.254;6.600;2023-06-10T02:06:23;15.00;99.90
51837;DHT22;38941;53.254;6.600;2023-06-10T02:08:24;14.90;99.90
51837;DHT22;38941;53.254;6.600;2023-06-10T02:10:26;14.90;99.90
51837;DHT22;38941;53.254;6.600;2023-06-10T02:12:27;14.90;99.90
51837;DHT22;38941;53.254;6.600;2023-06-10T02:14:27;14.80;99.90
51837;DHT22;38941;53.254;6.600;2023-06-10T02:16:28;14.70;99.90
51837;DHT22;38941;53.254;6.600;2023-06-10T02:18:30;14.70;99.90
51837;DHT22;38941;53.254;6.600;2023-06-10T02:20:31;14.60;99.90
51837;DHT22;38941;53.254;6.600;2023-06-10T02:22:32;14.50;99.90
51837;DHT22;38941;53.254;6.600;2023-06-10T02:24:32;14.50;99.90
51837;DHT22;38941;53.254;6.600;2023-06-10T02:26:34;14.40;99.90
51837;DHT22;38941;53.254;6.600;2023-06-10T02:28:36;14.40;99.90
51837;DHT22;38941;53.254;6.600;2023-06-10T02:30:40;14.30;99.90
51837;DHT22;38941;53.254;6.600;2023-06-10T02:32:41;14.30;99.90
51837;DHT22;38941;53.254;6.600;2023-06-10T02:34:42;14.20;99.90
51837;DHT22;38941;53.254;6.600;2023-06-10T02:36:43;14.20;99.90
51837;DHT22;38941;53.254;6.600;2023-06-10T02:38:43;14.10;99.90
51837;DHT22;38941;53.254;6.600;2023-06-10T02:40:45;14.10;99.90
51837;DHT22;38941;53.254;6.600;2023-06-10T02:42:46;13.90;99.90
51837;DHT22;38941;53.254;6.600;2023-06-10T02:44:47;14.00;99.90
51837;DHT22;38941;53.254;6.600;2023-06-10T02:46:49;13.90;99.90
51837;DHT22;38941;53.254;6.600;2023-06-10T02:48:50;13.90;99.90
51837;DHT22;38941;53.254;6.600;2023-06-10T02:50:52;13.90;99.90
51837;DHT22;38941;53.254;6.600;2023-06-10T02:52:56;13.90;99.90
51837;DHT22;38941;53.254;6.600;2023-06-10T02:54:57;13.80;99.90
51837;DHT22;38941;53.254;6.600;2023-06-10T02:56:57;13.80;99.90
51837;DHT22;38941;53.254;6.600;2023-06-10T02:58:59;13.80;99.90
51837;DHT22;38941;53.254;6.600;2023-06-10T03:01:00;13.80;99.90
51837;DHT22;38941;53.254;6.600;2023-06-10T03:03:01;13.80;99.90
51837;DHT22;38941;53.254;6.600;2023-06-10T03:05:04;13.70;99.90
51837;DHT22;38941;53.254;6.600;2023-06-10T03:07:06;13.70;99.90
51837;DHT22;38941;53.254;6.600;2023-06-10T03:09:07;13.60;99.90
51837;DHT22;38941;53.254;6.600;2023-06-10T03:11:08;13.60;99.90
51837;DHT22;38941;53.254;6.600;2023-06-10T03:13:09;13.50;99.90
51837;DHT22;38941;53.254;6.600;2023-06-10T03:15:10;13.50;99.90
51837;DHT22;38941;53.254;6.600;2023-06-10T03:17:11;13.00;99.90
51837;DHT22;38941;53.254;6.600;2023-06-10T03:19:12;13.50;99.90
51837;DHT22;38941;53.254;6.600;2023-06-10T03:21:15;13.50;99.90
51837;DHT22;38941;53.254;6.600;2023-06-10T03:23:15;13.50;99.90
51837;DHT22;38941;53.254;6.600;2023-06-10T03:25:16;13.50;99.90
51837;DHT22;38941;53.254;6.600;2023-06-10T03:27:17;13.50;99.90
51837;DHT22;38941;53.254;6.600;2023-06-10T03:29:18;13.50;99.90
51837;DHT22;38941;53.254;6.600;2023-06-10T03:31:19;13.50;99.90
51837;DHT22;38941;53.254;6.600;2023-06-10T03:33:20;13.50;99.90
51837;DHT22;38941;53.254;6.600;2023-06-10T03:35:21;13.50;99.90
51837;DHT22;38941;53.254;6.600;2023-06-10T03:37:24;13.50;99.90
51837;DHT22;38941;53.254;6.600;2023-06-10T03:39:25;13.50;99.90
51837;DHT22;38941;53.254;6.600;2023-06-10T03:41:29;13.50;99.90
51837;DHT22;38941;53.254;6.600;2023-06-10T03:43:32;13.50;99.90
51837;DHT22;38941;53.254;6.600;2023-06-10T03:45:33;13.60;99.90
51837;DHT22;38941;53.254;6.600;2023-06-10T03:47:35;13.60;99.90
51837;DHT22;38941;53.254;6.600;2023-06-10T03:49:36;13.50;99.90
51837;DHT22;38941;53.254;6.600;2023-06-10T03:51:37;13.50;99.90
51837;DHT22;38941;53.254;6.600;2023-06-10T03:53:37;13.50;99.90
51837;DHT22;38941;53.254;6.600;2023-06-10T03:55:38;13.50;99.90
51837;DHT22;38941;53.254;6.600;2023-06-10T03:57:39;13.50;99.90
51837;DHT22;38941;53.254;6.600;2023-06-10T03:59:41;13.50;99.90
51837;DHT22;38941;53.254;6.600;2023-06-10T04:01:42;13.50;99.90
51837;DHT22;38941;53.254;6.600;2023-06-10T04:03:44;13.50;99.90
51837;DHT22;38941;53.254;6.600;2023-06-10T04:05:45;13.50;99.90
51837;DHT22;38941;53.254;6.600;2023-06-10T04:07:45;13.50;99.90
51837;DHT22;38941;53.254;6.600;2023-06-10T04:09:48;13.50;99.90
51837;DHT22;38941;53.254;6.600;2023-06-10T04:11:50;13.40;99.90
51837;DHT22;38941;53.254;6.600;2023-06-10T04:13:51;13.40;99.90
51837;DHT22;38941;53.254;6.600;2023-06-10T04:15:51;13.40;99.90
51837;DHT22;38941;53.254;6.600;2023-06-10T04:17:52;13.40;99.90
51837;DHT22;38941;53.254;6.600;2023-06-10T04:19:53;13.40;99.90
51837;DHT22;38941;53.254;6.600;2023-06-10T04:21:55;13.40;99.90
51837;DHT22;38941;53.254;6.600;2023-06-10T04:23:56;13.50;99.90
51837;DHT22;38941;53.254;6.600;2023-06-10T04:25:56;13.50;99.90
51837;DHT22;38941;53.254;6.600;2023-06-10T04:27:57;13.50;99.90
51837;DHT22;38941;53.254;6.600;2023-06-10T04:29:59;13.50;99.90
51837;DHT22;38941;53.254;6.600;2023-06-10T04:32:00;13.50;99.90
51837;DHT22;38941;53.254;6.600;2023-06-10T04:34:02;13.50;99.90
51837;DHT22;38941;53.254;6.600;2023-06-10T04:36:03;13.60;99.90
51837;DHT22;38941;53.254;6.600;2023-06-10T04:38:03;13.60;99.90
51837;DHT22;38941;53.254;6.600;2023-06-10T04:40:05;13.60;99.90
51837;DHT22;38941;53.254;6.600;2023-06-10T04:42:06;13.70;99.90
51837;DHT22;38941;53.254;6.600;2023-06-10T04:44:08;13.70;99.90
51837;DHT22;38941;53.254;6.600;2023-06-10T04:46:10;13.70;99.90
51837;DHT22;38941;53.254;6.600;2023-06-10T04:48:11;13.80;99.90
51837;DHT22;38941;53.254;6.600;2023-06-10T04:50:11;13.80;99.90
51837;DHT22;38941;53.254;6.600;2023-06-10T04:52:12;13.90;99.90
51837;DHT22;38941;53.254;6.600;2023-06-10T04:54:14;13.90;99.90
51837;DHT22;38941;53.254;6.600;2023-06-10T04:56:16;14.00;99.90
51837;DHT22;38941;53.254;6.600;2023-06-10T04:58:17;14.00;99.90
51837;DHT22;38941;53.254;6.600;2023-06-10T05:00:17;14.20;99.90
51837;DHT22;38941;53.254;6.600;2023-06-10T05:02:18;14.20;99.90
51837;DHT22;38941;53.254;6.600;2023-06-10T05:04:19;14.30;99.90
51837;DHT22;38941;53.254;6.600;2023-06-10T05:06:20;14.40;99.90
51837;DHT22;38941;53.254;6.600;2023-06-10T05:08:20;14.50;99.90
51837;DHT22;38941;53.254;6.600;2023-06-10T05:10:21;14.60;99.90
51837;DHT22;38941;53.254;6.600;2023-06-10T05:12:22;14.60;99.90
51837;DHT22;38941;53.254;6.600;2023-06-10T05:14:23;14.70;99.90
51837;DHT22;38941;53.254;6.600;2023-06-10T05:16:23;14.80;99.90
51837;DHT22;38941;53.254;6.600;2023-06-10T05:18:26;14.90;99.90
51837;DHT22;38941;53.254;6.600;2023-06-10T05:20:27;15.00;99.90
51837;DHT22;38941;53.254;6.600;2023-06-10T05:22:29;15.10;99.90
51837;DHT22;38941;53.254;6.600;2023-06-10T05:24:30;15.20;99.90
51837;DHT22;38941;53.254;6.600;2023-06-10T05:26:31;15.20;99.90
51837;DHT22;38941;53.254;6.600;2023-06-10T05:28:37;15.30;99.90
51837;DHT22;38941;53.254;6.600;2023-06-10T05:30:38;15.40;99.90
51837;DHT22;38941;53.254;6.600;2023-06-10T05:32:39;15.50;99.90
51837;DHT22;38941;53.254;6.600;2023-06-10T05:34:40;15.50;99.90
51837;DHT22;38941;53.254;6.600;2023-06-10T05:36:41;15.60;99.90
51837;DHT22;38941;53.254;6.600;2023-06-10T05:38:42;15.60;99.90
51837;DHT22;38941;53.254;6.600;2023-06-10T05:40:43;15.60;99.90
51837;DHT22;38941;53.254;6.600;2023-06-10T05:42:44;15.70;99.90
51837;DHT22;38941;53.254;6.600;2023-06-10T05:44:46;15.80;99.90
51837;DHT22;38941;53.254;6.600;2023-06-10T05:46:47;15.80;99.90
51837;DHT22;38941;53.254;6.600;2023-06-10T05:48:48;15.90;99.90
51837;DHT22;38941;53.254;6.600;2023-06-10T05:50:49;15.90;99.90
51837;DHT22;38941;53.254;6.600;2023-06-10T05:52:50;16.00;99.90
51837;DHT22;38941;53.254;6.600;2023-06-10T05:54:54;16.00;99.90
51837;DHT22;38941;53.254;6.600;2023-06-10T05:56:54;16.00;99.90
51837;DHT22;38941;53.254;6.600;2023-06-10T05:58:58;16.00;99.90
51837;DHT22;38941;53.254;6.600;2023-06-10T06:01:00;16.10;99.90
51837;DHT22;38941;53.254;6.600;2023-06-10T06:03:01;16.10;99.90
51837;DHT22;38941;53.254;6.600;2023-06-10T06:05:02;16.30;99.90
51837;DHT22;38941;53.254;6.600;2023-06-10T06:07:04;16.20;99.90
51837;DHT22;38941;53.254;6.600;2023-06-10T06:09:08;16.30;99.90
51837;DHT22;38941;53.254;6.600;2023-06-10T06:11:09;16.40;99.90
51837;DHT22;38941;53.254;6.600;2023-06-10T06:13:09;16.40;99.90
51837;DHT22;38941;53.254;6.600;2023-06-10T06:15:11;16.50;99.90
51837;DHT22;38941;53.254;6.600;2023-06-10T06:17:12;16.60;99.90
51837;DHT22;38941;53.254;6.600;2023-06-10T06:19:13;16.70;99.90
51837;DHT22;38941;53.254;6.600;2023-06-10T06:21:15;16.80;99.90
51837;DHT22;38941;53.254;6.600;2023-06-10T06:23:16;16.90;99.90
51837;DHT22;38941;53.254;6.600;2023-06-10T06:25:17;16.90;99.90
51837;DHT22;38941;53.254;6.600;2023-06-10T06:27:18;17.00;99.90
51837;DHT22;38941;53.254;6.600;2023-06-10T06:29:19;17.10;99.90
51837;DHT22;38941;53.254;6.600;2023-06-10T06:31:19;17.10;99.90
51837;DHT22;38941;53.254;6.600;2023-06-10T06:33:20;17.20;99.90
51837;DHT22;38941;53.254;6.600;2023-06-10T06:35:21;17.20;99.90
51837;DHT22;38941;53.254;6.600;2023-06-10T06:37:23;17.20;99.90
51837;DHT22;38941;53.254;6.600;2023-06-10T06:39:26;17.30;99.90
51837;DHT22;38941;53.254;6.600;2023-06-10T06:41:27;17.40;99.90
51837;DHT22;38941;53.254;6.600;2023-06-10T06:43:28;17.40;99.90
51837;DHT22;38941;53.254;6.600;2023-06-10T06:45:30;17.50;99.90
51837;DHT22;38941;53.254;6.600;2023-06-10T06:47:31;17.60;99.90
51837;DHT22;38941;53.254;6.600;2023-06-10T06:49:32;17.70;99.90
51837;DHT22;38941;53.254;6.600;2023-06-10T06:51:33;17.70;99.90
51837;DHT22;38941;53.254;6.600;2023-06-10T06:53:33;17.80;99.90
51837;DHT22;38941;53.254;6.600;2023-06-10T06:55:37;17.90;99.90
51837;DHT22;38941;53.254;6.600;2023-06-10T06:57:38;18.00;99.90
51837;DHT22;38941;53.254;6.600;2023-06-10T06:59:39;18.10;99.90
51837;DHT22;38941;53.254;6.600;2023-06-10T07:01:40;18.20;99.90
51837;DHT22;38941;53.254;6.600;2023-06-10T07:03:41;18.30;99.90
51837;DHT22;38941;53.254;6.600;2023-06-10T07:05:42;18.40;99.90
51837;DHT22;38941;53.254;6.600;2023-06-10T07:07:43;18.50;99.90
51837;DHT22;38941;53.254;6.600;2023-06-10T07:09:45;18.60;99.90
51837;DHT22;38941;53.254;6.600;2023-06-10T07:11:47;18.80;99.90
51837;DHT22;38941;53.254;6.600;2023-06-10T07:13:47;18.90;99.90
51837;DHT22;38941;53.254;6.600;2023-06-10T07:15:48;18.90;99.90
51837;DHT22;38941;53.254;6.600;2023-06-10T07:17:53;19.00;99.90
51837;DHT22;38941;53.254;6.600;2023-06-10T07:19:53;19.10;99.90
51837;DHT22;38941;53.254;6.600;2023-06-10T07:21:57;19.20;99.90
51837;DHT22;38941;53.254;6.600;2023-06-10T07:23:58;19.30;99.90
51837;DHT22;38941;53.254;6.600;2023-06-10T07:25:59;19.40;99.90
51837;DHT22;38941;53.254;6.600;2023-06-10T07:27:59;19.50;99.90
51837;DHT22;38941;53.254;6.600;2023-06-10T07:30:00;19.60;99.90
51837;DHT22;38941;53.254;6.600;2023-06-10T07:32:04;19.70;99.90
51837;DHT22;38941;53.254;6.600;2023-06-10T07:34:04;19.80;99.90
51837;DHT22;38941;53.254;6.600;2023-06-10T07:36:06;19.80;99.90
51837;DHT22;38941;53.254;6.600;2023-06-10T07:38:07;19.90;99.90
51837;DHT22;38941;53.254;6.600;2023-06-10T07:40:08;20.00;99.90
51837;DHT22;38941;53.254;6.600;2023-06-10T07:42:10;20.10;99.90
51837;DHT22;38941;53.254;6.600;2023-06-10T07:44:13;20.20;99.90
51837;DHT22;38941;53.254;6.600;2023-06-10T07:46:14;20.30;99.90
51837;DHT22;38941;53.254;6.600;2023-06-10T07:48:15;20.40;99.90
51837;DHT22;38941;53.254;6.600;2023-06-10T07:50:17;20.40;99.90
51837;DHT22;38941;53.254;6.600;2023-06-10T07:52:17;20.50;99.90
51837;DHT22;38941;53.254;6.600;2023-06-10T07:54:18;20.60;99.90
51837;DHT22;38941;53.254;6.600;2023-06-10T07:56:20;20.60;99.90
51837;DHT22;38941;53.254;6.600;2023-06-10T07:58:23;20.70;99.90
51837;DHT22;38941;53.254;6.600;2023-06-10T08:00:26;20.50;99.90
51837;DHT22;38941;53.254;6.600;2023-06-10T08:02:26;20.90;99.90
51837;DHT22;38941;53.254;6.600;2023-06-10T08:04:27;21.10;99.90
51837;DHT22;38941;53.254;6.600;2023-06-10T08:06:29;21.10;99.90
51837;DHT22;38941;53.254;6.600;2023-06-10T08:08:30;21.20;99.90
51837;DHT22;38941;53.254;6.600;2023-06-10T08:10:32;21.40;99.90
51837;DHT22;38941;53.254;6.600;2023-06-10T08:12:34;21.40;99.90
51837;DHT22;38941;53.254;6.600;2023-06-10T08:14:37;21.60;99.90
51837;DHT22;38941;53.254;6.600;2023-06-10T08:16:44;21.60;99.90
51837;DHT22;38941;53.254;6.600;2023-06-10T08:18:45;21.60;99.90
51837;DHT22;38941;53.254;6.600;2023-06-10T08:20:47;21.70;99.90
51837;DHT22;38941;53.254;6.600;2023-06-10T08:22:48;21.90;99.90
51837;DHT22;38941;53.254;6.600;2023-06-10T08:24:49;22.00;99.90
51837;DHT22;38941;53.254;6.600;2023-06-10T08:26:52;22.20;99.90
51837;DHT22;38941;53.254;6.600;2023-06-10T08:28:53;22.30;99.90
51837;DHT22;38941;53.254;6.600;2023-06-10T08:30:55;22.40;99.90
51837;DHT22;38941;53.254;6.600;2023-06-10T08:32:55;22.60;99.90
51837;DHT22;38941;53.254;6.600;2023-06-10T08:34:58;22.60;99.90
51837;DHT22;38941;53.254;6.600;2023-06-10T08:36:59;22.70;99.90
51837;DHT22;38941;53.254;6.600;2023-06-10T08:39:01;22.90;99.90
51837;DHT22;38941;53.254;6.600;2023-06-10T08:41:05;23.00;99.90
51837;DHT22;38941;53.254;6.600;2023-06-10T08:43:08;23.00;99.90
51837;DHT22;38941;53.254;6.600;2023-06-10T08:45:21;23.10;99.90
51837;DHT22;38941;53.254;6.600;2023-06-10T08:47:24;23.20;99.90
51837;DHT22;38941;53.254;6.600;2023-06-10T08:49:26;23.40;99.90
51837;DHT22;38941;53.254;6.600;2023-06-10T08:51:31;23.50;99.90
51837;DHT22;38941;53.254;6.600;2023-06-10T08:53:37;23.60;99.90
51837;DHT22;38941;53.254;6.600;2023-06-10T08:55:42;23.60;99.90
51837;DHT22;38941;53.254;6.600;2023-06-10T08:57:46;23.80;99.90
51837;DHT22;38941;53.254;6.600;2023-06-10T08:59:48;24.00;99.90
51837;DHT22;38941;53.254;6.600;2023-06-10T09:01:50;24.20;99.90
51837;DHT22;38941;53.254;6.600;2023-06-10T09:03:51;24.30;99.90
51837;DHT22;38941;53.254;6.600;2023-06-10T09:05:56;24.50;99.90
51837;DHT22;38941;53.254;6.600;2023-06-10T09:07:57;24.70;99.90
51837;DHT22;38941;53.254;6.600;2023-06-10T09:10:01;24.80;99.90
51837;DHT22;38941;53.254;6.600;2023-06-10T09:12:08;24.90;99.50
51837;DHT22;38941;53.254;6.600;2023-06-10T09:14:09;24.80;99.50
51837;DHT22;38941;53.254;6.600;2023-06-10T09:16:17;25.00;99.20
51837;DHT22;38941;53.254;6.600;2023-06-10T09:18:20;25.20;99.10
51837;DHT22;38941;53.254;6.600;2023-06-10T09:20:20;25.30;99.00
51837;DHT22;38941;53.254;6.600;2023-06-10T09:22:24;25.50;98.60
51837;DHT22;38941;53.254;6.600;2023-06-10T09:24:27;25.70;98.10
51837;DHT22;38941;53.254;6.600;2023-06-10T09:26:29;25.80;97.90
51837;DHT22;38941;53.254;6.600;2023-06-10T09:28:33;25.90;97.20
51837;DHT22;38941;53.254;6.600;2023-06-10T09:30:35;26.00;97.10
51837;DHT22;38941;53.254;6.600;2023-06-10T09:32:38;26.10;96.60
51837;DHT22;38941;53.254;6.600;2023-06-10T09:34:40;26.30;96.00
51837;DHT22;38941;53.254;6.600;2023-06-10T09:36:42;26.50;95.80
51837;DHT22;38941;53.254;6.600;2023-06-10T09:38:43;26.60;95.40
51837;DHT22;38941;53.254;6.600;2023-06-10T09:40:52;26.60;94.80
51837;DHT22;38941;53.254;6.600;2023-06-10T09:42:55;26.70;94.90
51837;DHT22;38941;53.254;6.600;2023-06-10T09:44:57;26.70;95.40
51837;DHT22;38941;53.254;6.600;2023-06-10T09:46:58;26.90;95.20
51837;DHT22;38941;53.254;6.600;2023-06-10T09:48:59;26.90;94.90
51837;DHT22;38941;53.254;6.600;2023-06-10T09:51:02;27.10;94.40
51837;DHT22;38941;53.254;6.600;2023-06-10T09:53:06;27.20;94.20
51837;DHT22;38941;53.254;6.600;2023-06-10T09:55:08;27.30;93.70
51837;DHT22;38941;53.254;6.600;2023-06-10T09:57:11;27.40;93.40
51837;DHT22;38941;53.254;6.600;2023-06-10T09:59:12;27.50;93.50
51837;DHT22;38941;53.254;6.600;2023-06-10T10:01:14;28.00;93.30
51837;DHT22;38941;53.254;6.600;2023-06-10T10:03:22;27.80;92.70
51837;DHT22;38941;53.254;6.600;2023-06-10T10:05:23;27.60;91.60
51837;DHT22;38941;53.254;6.600;2023-06-10T10:07:24;27.80;91.80
51837;DHT22;38941;53.254;6.600;2023-06-10T10:09:25;28.00;91.70
51837;DHT22;38941;53.254;6.600;2023-06-10T10:11:27;27.90;91.50
51837;DHT22;38941;53.254;6.600;2023-06-10T10:13:29;28.10;91.30
51837;DHT22;38941;53.254;6.600;2023-06-10T10:15:32;28.30;91.40
51837;DHT22;38941;53.254;6.600;2023-06-10T10:17:39;28.40;90.90
51837;DHT22;38941;53.254;6.600;2023-06-10T10:19:57;28.60;90.50
51837;DHT22;38941;53.254;6.600;2023-06-10T10:22:10;28.80;90.00
51837;DHT22;38941;53.254;6.600;2023-06-10T10:24:21;29.00;90.60
51837;DHT22;38941;53.254;6.600;2023-06-10T10:26:23;29.20;89.50
51837;DHT22;38941;53.254;6.600;2023-06-10T10:28:36;29.20;88.70
51837;DHT22;38941;53.254;6.600;2023-06-10T10:30:47;29.40;87.10
51837;DHT22;38941;53.254;6.600;2023-06-10T10:33:04;29.50;84.90
51837;DHT22;38941;53.254;6.600;2023-06-10T10:35:10;29.50;83.40
51837;DHT22;38941;53.254;6.600;2023-06-10T10:37:13;29.60;84.40
51837;DHT22;38941;53.254;6.600;2023-06-10T10:39:14;29.70;86.00
51837;DHT22;38941;53.254;6.600;2023-06-10T10:41:16;30.00;86.50
51837;DHT22;38941;53.254;6.600;2023-06-10T10:43:18;30.10;86.30
51837;DHT22;38941;53.254;6.600;2023-06-10T10:45:21;30.30;85.70
51837;DHT22;38941;53.254;6.600;2023-06-10T10:47:22;30.30;84.70
51837;DHT22;38941;53.254;6.600;2023-06-10T10:49:27;30.30;84.10
51837;DHT22;38941;53.254;6.600;2023-06-10T10:51:33;30.30;82.60
51837;DHT22;38941;53.254;6.600;2023-06-10T10:53:36;30.40;80.60
51837;DHT22;38941;53.254;6.600;2023-06-10T10:55:38;30.60;81.10
51837;DHT22;38941;53.254;6.600;2023-06-10T10:57:40;30.70;80.80
51837;DHT22;38941;53.254;6.600;2023-06-10T11:01:45;30.70;80.40
51837;DHT22;38941;53.254;6.600;2023-06-10T11:03:47;30.90;80.60
51837;DHT22;38941;53.254;6.600;2023-06-10T11:05:48;31.10;79.70
51837;DHT22;38941;53.254;6.600;2023-06-10T11:07:54;31.10;78.40
51837;DHT22;38941;53.254;6.600;2023-06-10T11:10:02;31.30;78.40
51837;DHT22;38941;53.254;6.600;2023-06-10T11:12:05;31.50;77.20
51837;DHT22;38941;53.254;6.600;2023-06-10T11:14:07;31.60;78.90
51837;DHT22;38941;53.254;6.600;2023-06-10T11:16:10;31.60;77.50
51837;DHT22;38941;53.254;6.600;2023-06-10T11:18:13;31.70;76.50
51837;DHT22;38941;53.254;6.600;2023-06-10T11:20:55;32.00;75.90
51837;DHT22;38941;53.254;6.600;2023-06-10T11:23:01;32.00;74.00
51837;DHT22;38941;53.254;6.600;2023-06-10T11:25:03;32.00;74.50
51837;DHT22;38941;53.254;6.600;2023-06-10T11:27:24;32.10;74.60
51837;DHT22;38941;53.254;6.600;2023-06-10T11:29:24;32.30;73.30
51837;DHT22;38941;53.254;6.600;2023-06-10T11:31:29;32.50;73.80
51837;DHT22;38941;53.254;6.600;2023-06-10T11:33:31;32.60;72.60
51837;DHT22;38941;53.254;6.600;2023-06-10T11:39:35;32.70;72.20
51837;DHT22;38941;53.254;6.600;2023-06-10T11:41:37;32.80;71.60
51837;DHT22;38941;53.254;6.600;2023-06-10T11:47:58;33.00;71.00
51837;DHT22;38941;53.254;6.600;2023-06-10T11:49:59;33.20;67.30
51837;DHT22;38941;53.254;6.600;2023-06-10T11:52:00;33.20;68.40
51837;DHT22;38941;53.254;6.600;2023-06-10T11:54:01;33.20;68.10
51837;DHT22;38941;53.254;6.600;2023-06-10T11:56:02;33.30;67.40
51837;DHT22;38941;53.254;6.600;2023-06-10T11:58:04;33.40;66.10
51837;DHT22;38941;53.254;6.600;2023-06-10T12:00:06;33.40;65.70
51837;DHT22;38941;53.254;6.600;2023-06-10T12:02:15;33.40;64.50
51837;DHT22;38941;53.254;6.600;2023-06-10T12:04:16;33.50;63.10
51837;DHT22;38941;53.254;6.600;2023-06-10T12:06:18;33.60;65.50
51837;DHT22;38941;53.254;6.600;2023-06-10T12:08:19;33.60;64.70
51837;DHT22;38941;53.254;6.600;2023-06-10T12:10:20;33.60;64.40
51837;DHT22;38941;53.254;6.600;2023-06-10T12:12:20;33.50;64.50
51837;DHT22;38941;53.254;6.600;2023-06-10T12:14:53;33.40;64.60
51837;DHT22;38941;53.254;6.600;2023-06-10T12:16:56;33.40;63.90
51837;DHT22;38941;53.254;6.600;2023-06-10T12:19:04;33.60;64.90
51837;DHT22;38941;53.254;6.600;2023-06-10T12:21:23;33.70;64.20
51837;DHT22;38941;53.254;6.600;2023-06-10T12:23:25;33.70;62.70
51837;DHT22;38941;53.254;6.600;2023-06-10T12:25:33;33.60;63.60
51837;DHT22;38941;53.254;6.600;2023-06-10T12:27:35;33.50;62.80
51837;DHT22;38941;53.254;6.600;2023-06-10T12:29:37;33.60;65.20
51837;DHT22;38941;53.254;6.600;2023-06-10T12:31:58;33.80;65.10
51837;DHT22;38941;53.254;6.600;2023-06-10T12:34:08;34.00;63.30
51837;DHT22;38941;53.254;6.600;2023-06-10T12:36:16;34.00;63.20
51837;DHT22;38941;53.254;6.600;2023-06-10T12:38:24;34.10;62.60
51837;DHT22;38941;53.254;6.600;2023-06-10T12:40:29;34.00;61.30
51837;DHT22;38941;53.254;6.600;2023-06-10T12:42:30;34.30;62.80
51837;DHT22;38941;53.254;6.600;2023-06-10T12:44:33;34.30;62.20
51837;DHT22;38941;53.254;6.600;2023-06-10T12:46:37;34.40;61.10
51837;DHT22;38941;53.254;6.600;2023-06-10T12:48:49;34.50;61.60
51837;DHT22;38941;53.254;6.600;2023-06-10T12:50:57;34.30;60.90
51837;DHT22;38941;53.254;6.600;2023-06-10T12:52:59;34.10;60.10
51837;DHT22;38941;53.254;6.600;2023-06-10T12:55:01;33.80;61.50
51837;DHT22;38941;53.254;6.600;2023-06-10T12:57:09;33.80;61.00
51837;DHT22;38941;53.254;6.600;2023-06-10T12:59:11;33.70;60.00
51837;DHT22;38941;53.254;6.600;2023-06-10T13:01:14;33.80;60.20
51837;DHT22;38941;53.254;6.600;2023-06-10T13:03:16;34.00;60.00
51837;DHT22;38941;53.254;6.600;2023-06-10T13:05:17;33.90;59.20